createdAt,value
2019-02-04T00:00:45.360Z,76.10
2019-02-04T00:03:17.910Z,75.50
2019-02-04T00:05:48.974Z,75.50
2019-02-04T00:08:19.751Z,75.60
2019-02-04T00:10:53.044Z,75.60
2019-02-04T00:13:26.121Z,75.60
2019-02-04T00:15:59.127Z,75.70
2019-02-04T00:18:29.786Z,75.70
2019-02-04T00:21:06.722Z,75.80
2019-02-04T00:23:35.124Z,75.80
2019-02-04T00:26:05.984Z,75.80
2019-02-04T00:28:38.218Z,75.80
2019-02-04T00:31:12.595Z,75.80
2019-02-04T00:33:44.318Z,75.80
2019-02-04T00:36:15.126Z,75.80
2019-02-04T00:38:46.076Z,75.80
2019-02-04T00:41:17.324Z,75.80
2019-02-04T00:43:48.277Z,75.80
2019-02-04T00:46:19.201Z,75.80
2019-02-04T00:48:51.591Z,75.80
2019-02-04T00:51:24.707Z,75.80
2019-02-04T00:53:55.693Z,75.80
2019-02-04T00:56:28.560Z,75.70
2019-02-04T00:58:59.735Z,75.60
2019-02-04T01:01:30.494Z,75.70
2019-02-04T01:04:01.159Z,75.60
2019-02-04T01:06:32.327Z,75.60
2019-02-04T01:09:04.974Z,75.60
2019-02-04T01:11:35.685Z,75.60
2019-02-04T01:14:06.594Z,75.50
2019-02-04T01:16:44.729Z,75.50
2019-02-04T01:19:17.891Z,75.40
2019-02-04T01:21:48.886Z,75.40
2019-02-04T01:24:19.704Z,75.30
2019-02-04T01:26:50.484Z,75.50
2019-02-04T01:29:21.292Z,75.40
2019-02-04T01:31:52.993Z,75.40
2019-02-04T01:34:23.936Z,75.40
2019-02-04T01:36:54.800Z,75.50
2019-02-04T01:39:26.978Z,75.60
2019-02-04T01:41:57.780Z,75.70
2019-02-04T01:44:30.669Z,75.70
2019-02-04T01:47:02.509Z,75.90
2019-02-04T01:49:33.743Z,76.10
2019-02-04T01:52:04.441Z,76.20
2019-02-04T01:54:35.216Z,76.20
2019-02-04T01:57:09.492Z,76.20
2019-02-04T01:59:40.232Z,76.10
2019-02-04T02:02:10.957Z,76.20
2019-02-04T02:04:43.717Z,76.30
2019-02-04T02:07:16.828Z,76.50
2019-02-04T02:09:48.431Z,76.60
2019-02-04T02:12:19.364Z,76.70
2019-02-04T02:14:50.280Z,76.60
2019-02-04T02:17:26.334Z,76.60
2019-02-04T02:19:53.774Z,76.40
2019-02-04T02:22:24.998Z,76.70
2019-02-04T02:24:55.771Z,76.30
2019-02-04T02:27:26.588Z,76.30
2019-02-04T02:29:59.534Z,76.00
2019-02-04T02:32:30.287Z,76.00
2019-02-04T02:35:01.512Z,76.00
2019-02-04T02:37:34.198Z,76.10
2019-02-04T02:40:07.289Z,76.00
2019-02-04T02:42:38.060Z,76.00
2019-02-04T02:45:09.591Z,76.00
2019-02-04T02:47:40.798Z,76.00
2019-02-04T02:50:16.707Z,76.10
2019-02-04T02:52:47.490Z,76.10
2019-02-04T02:55:20.490Z,76.00
2019-02-04T02:57:51.270Z,76.00
2019-02-04T03:00:29.216Z,76.00
2019-02-04T03:03:00.188Z,75.80
2019-02-04T03:05:31.082Z,75.80
2019-02-04T03:08:07.150Z,75.70
2019-02-04T03:10:39.657Z,75.70
2019-02-04T03:13:10.764Z,75.80
2019-02-04T03:15:41.698Z,75.70
2019-02-04T03:18:12.383Z,75.60
2019-02-04T03:20:43.374Z,75.50
2019-02-04T03:23:14.139Z,75.50
2019-02-04T03:25:44.789Z,75.20
2019-02-04T03:28:15.548Z,75.10
2019-02-04T03:30:46.967Z,75.10
2019-02-04T03:33:18.301Z,75.10
2019-02-04T03:35:50.145Z,75.10
2019-02-04T03:38:20.996Z,75.10
2019-02-04T03:40:51.649Z,75.00
2019-02-04T03:43:22.459Z,75.70
2019-02-04T03:45:53.203Z,75.00
2019-02-04T03:48:24.098Z,75.00
2019-02-04T03:50:54.977Z,75.20
2019-02-04T03:53:28.671Z,75.00
2019-02-04T03:56:02.565Z,75.10
2019-02-04T03:58:37.308Z,75.10
2019-02-04T04:01:12.143Z,75.10
2019-02-04T04:03:47.379Z,75.20
2019-02-04T04:06:23.267Z,75.10
2019-02-04T04:09:01.534Z,75.20
2019-02-04T04:11:42.547Z,75.20
2019-02-04T04:14:15.236Z,75.10
2019-02-04T04:17:31.319Z,75.10
2019-02-04T04:20:06.188Z,75.10
2019-02-04T04:22:37.704Z,75.30
2019-02-04T04:25:15.665Z,75.10
2019-02-04T04:27:47.335Z,75.20
2019-02-04T04:30:24.382Z,75.20
2019-02-04T04:32:55.767Z,75.30
2019-02-04T04:35:28.956Z,75.40
2019-02-04T04:38:00.571Z,75.50
2019-02-04T04:40:31.444Z,75.50
2019-02-04T04:43:02.856Z,75.50
2019-02-04T04:45:34.246Z,75.60
2019-02-04T04:48:05.328Z,75.60
2019-02-04T04:50:36.947Z,75.50
2019-02-04T04:53:13.094Z,75.50
2019-02-04T04:55:45.743Z,75.40
2019-02-04T04:58:19.649Z,75.40
2019-02-04T05:00:50.106Z,75.40
2019-02-04T05:03:26.202Z,75.40
2019-02-04T05:05:57.313Z,75.40
2019-02-04T05:08:29.174Z,76.10
2019-02-04T05:11:06.110Z,75.50
2019-02-04T05:13:37.330Z,75.40
2019-02-04T05:16:08.167Z,75.30
2019-02-04T05:18:45.969Z,75.40
2019-02-04T05:21:19.443Z,75.40
2019-02-04T05:23:50.775Z,75.50
2019-02-04T05:26:31.703Z,75.50
2019-02-04T05:29:38.240Z,75.50
2019-02-04T05:32:20.057Z,75.50
2019-02-04T05:34:57.530Z,75.50
2019-02-04T05:37:51.486Z,75.50
2019-02-04T05:40:30.883Z,75.50
2019-02-04T05:43:06.662Z,75.50
2019-02-04T05:45:47.514Z,75.60
2019-02-04T05:48:23.335Z,75.40
2019-02-04T05:50:55.359Z,75.50
2019-02-04T05:53:26.132Z,75.50
2019-02-04T05:56:05.807Z,75.40
2019-02-04T05:58:36.092Z,75.50
2019-02-04T06:01:09.076Z,75.40
2019-02-04T06:03:39.957Z,75.40
2019-02-04T06:06:10.606Z,75.30
2019-02-04T06:08:44.681Z,75.50
2019-02-04T06:11:15.373Z,75.50
2019-02-04T06:13:46.580Z,75.60
2019-02-04T06:16:20.655Z,75.60
2019-02-04T06:19:00.816Z,75.60
2019-02-04T06:21:30.460Z,75.60
2019-02-04T06:24:03.872Z,75.60
2019-02-04T06:26:43.935Z,75.60
2019-02-04T06:29:16.531Z,75.60
2019-02-04T06:31:47.452Z,75.60
2019-02-04T06:34:19.665Z,75.60
2019-02-04T06:36:50.514Z,75.60
2019-02-04T06:39:21.484Z,75.50
2019-02-04T06:41:52.193Z,75.40
2019-02-04T06:44:22.873Z,75.50
2019-02-04T06:46:58.161Z,75.50
2019-02-04T06:49:42.259Z,75.50
2019-02-04T06:52:13.447Z,75.50
2019-02-04T06:54:47.200Z,75.50
2019-02-04T06:57:22.098Z,75.50
2019-02-04T06:59:52.872Z,75.40
2019-02-04T07:02:23.992Z,75.40
2019-02-04T07:04:56.297Z,75.50
2019-02-04T07:07:30.193Z,75.40
2019-02-04T07:10:00.965Z,75.30
2019-02-04T07:12:32.913Z,75.50
2019-02-04T07:15:06.875Z,75.50
2019-02-04T07:17:39.733Z,75.50
2019-02-04T07:20:17.192Z,75.50
2019-02-04T07:22:48.142Z,75.50
2019-02-04T07:25:23.057Z,75.40
2019-02-04T07:27:57.655Z,75.50
2019-02-04T07:30:32.168Z,75.40
2019-02-04T07:33:14.746Z,75.50
2019-02-04T07:35:46.089Z,75.50
2019-02-04T07:38:22.555Z,75.50
2019-02-04T07:40:53.219Z,75.50
2019-02-04T07:43:33.446Z,75.70
2019-02-04T07:46:04.835Z,75.60
2019-02-04T07:48:36.419Z,76.20
2019-02-04T07:51:11.670Z,75.50
2019-02-04T07:53:42.892Z,75.50
2019-02-04T07:56:14.009Z,75.50
2019-02-04T07:58:45.109Z,75.50
2019-02-04T08:01:16.139Z,75.50
2019-02-04T08:03:50.135Z,75.50
2019-02-04T08:06:24.695Z,75.50
2019-02-04T08:08:55.712Z,75.60
2019-02-04T08:11:27.737Z,75.40
2019-02-04T08:14:22.217Z,75.00
2019-02-04T08:17:03.888Z,74.90
2019-02-04T08:19:47.122Z,74.80
2019-02-04T08:22:19.178Z,74.70
2019-02-04T08:37:06.902Z,74.10
2019-02-04T08:39:44.660Z,73.50
2019-02-04T08:53:06.083Z,73.60
2019-02-04T09:42:01.934Z,90.50
2019-02-04T09:49:39.059Z,87.30
2019-02-04T09:52:13.710Z,74.10
2019-02-04T09:54:44.464Z,74.70
2019-02-04T09:57:17.661Z,73.50
2019-02-04T09:59:48.883Z,73.10
2019-02-04T10:02:21.893Z,73.80
2019-02-04T10:04:52.538Z,72.10
2019-02-04T10:07:23.251Z,75.70
2019-02-04T10:09:54.334Z,72.60
2019-02-04T10:12:29.894Z,72.00
2019-02-04T10:15:01.264Z,71.90
2019-02-04T10:17:35.677Z,71.30
2019-02-04T10:20:07.550Z,71.10
2019-02-04T10:22:38.354Z,71.00
2019-02-04T10:25:11.004Z,70.90
2019-02-04T10:27:41.837Z,70.60
2019-02-04T10:30:21.113Z,70.30
2019-02-04T10:32:53.559Z,70.20
2019-02-04T10:35:25.567Z,70.10
2019-02-04T10:37:58.259Z,70.10
2019-02-04T10:40:29.677Z,70.10
2019-02-04T10:43:06.599Z,70.00
2019-02-04T10:45:37.630Z,69.80
2019-02-04T10:48:08.993Z,69.70
2019-02-04T10:50:54.089Z,69.70
2019-02-04T10:53:30.669Z,69.40
2019-02-04T10:56:21.626Z,69.50
2019-02-04T10:59:10.533Z,69.30
2019-02-04T11:02:03.266Z,69.10
2019-02-04T11:04:43.483Z,68.90
2019-02-04T11:07:27.575Z,68.60
2019-02-04T11:10:10.124Z,68.50
2019-02-04T11:12:42.349Z,68.40
2019-02-04T11:15:31.002Z,68.20
2019-02-04T11:18:03.915Z,68.20
2019-02-04T11:20:38.744Z,67.60
2019-02-04T11:23:30.744Z,67.50
2019-02-04T11:27:15.483Z,67.40
2019-02-04T11:30:01.687Z,67.20
2019-02-04T11:32:49.740Z,67.00
2019-02-04T11:35:35.155Z,66.60
2019-02-04T11:38:08.031Z,66.60
2019-02-04T11:40:45.997Z,66.40
2019-02-04T11:43:15.962Z,66.80
2019-02-04T11:45:59.920Z,65.60
2019-02-04T11:49:06.659Z,65.30
2019-02-04T11:51:42.613Z,65.10
2019-02-04T11:54:52.004Z,64.60
2019-02-04T11:57:27.180Z,64.40
2019-02-04T12:00:10.407Z,64.50
2019-02-04T12:03:39.286Z,64.40
2019-02-04T12:06:17.392Z,64.30
2019-02-04T12:08:50.081Z,63.90
2019-02-04T12:11:30.751Z,63.60
2019-02-04T12:14:04.986Z,63.40
2019-02-04T12:17:04.269Z,63.50
2019-02-04T12:19:37.653Z,62.70
2019-02-04T12:22:32.160Z,62.40
2019-02-04T12:24:40.855Z,61.40
2019-02-04T12:27:35.557Z,61.00
2019-02-04T12:30:02.056Z,60.50
2019-02-04T12:32:35.954Z,60.30
2019-02-04T12:35:17.384Z,60.20
2019-02-04T12:37:51.410Z,60.30
2019-02-04T12:40:27.110Z,60.30
2019-02-04T12:43:15.635Z,60.00
2019-02-04T12:45:45.967Z,60.10
2019-02-04T12:48:57.881Z,59.90
2019-02-04T12:51:34.023Z,59.70
2019-02-04T12:54:14.275Z,59.40
2019-02-04T12:56:48.277Z,59.40
2019-02-04T12:59:28.931Z,59.40
2019-02-04T13:02:22.978Z,59.40
2019-02-04T13:05:20.919Z,59.30
2019-02-04T13:07:49.021Z,59.20
2019-02-04T13:10:18.955Z,59.20
2019-02-04T13:12:53.427Z,59.00
2019-02-04T13:15:27.265Z,59.00
2019-02-04T13:20:09.856Z,59.00
2019-02-04T13:22:20.354Z,59.10
2019-02-04T13:25:10.623Z,56.50
2019-02-04T13:27:46.606Z,56.90
2019-02-04T13:30:27.635Z,56.80
2019-02-04T13:33:02.284Z,56.90
2019-02-04T13:35:33.553Z,57.10
2019-02-04T13:41:18.103Z,57.00
2019-02-04T13:44:10.385Z,57.00
2019-02-04T13:46:58.553Z,56.80
2019-02-04T13:49:58.654Z,56.50
2019-02-04T13:52:36.750Z,56.60
2019-02-04T13:55:31.936Z,56.50
2019-02-04T13:58:12.544Z,56.70
2019-02-04T14:01:04.267Z,56.50
2019-02-04T14:03:50.109Z,56.30
2019-02-04T14:06:33.974Z,55.70
2019-02-04T14:09:19.219Z,55.50
2019-02-04T14:12:05.737Z,55.50
2019-02-04T14:15:06.893Z,55.60
2019-02-04T14:17:55.299Z,55.60
2019-02-04T14:21:14.580Z,56.00
2019-02-04T14:24:22.121Z,56.10
2019-02-04T14:27:34.037Z,56.20
2019-02-04T14:30:39.204Z,56.60
2019-02-04T14:33:19.693Z,56.80
2019-02-04T14:36:10.417Z,57.10
2019-02-04T14:38:59.497Z,57.40
2019-02-04T14:41:50.951Z,57.50
2019-02-04T14:45:20.080Z,57.70
2019-02-04T14:49:03.527Z,57.90
2019-02-04T14:54:21.358Z,58.30
2019-02-04T14:56:25.296Z,58.70
2019-02-04T15:00:16.785Z,59.00
2019-02-04T15:04:08.940Z,59.30
2019-02-04T15:07:59.685Z,59.60
2019-02-04T15:11:33.974Z,60.60
2019-02-04T15:15:21.508Z,60.10
2019-02-04T15:19:07.133Z,60.40
2019-02-04T15:22:47.459Z,60.70
2019-02-04T15:26:10.215Z,61.00
2019-02-04T15:38:35.686Z,61.50
2019-02-04T15:40:17.408Z,61.90
2019-02-04T15:43:57.293Z,62.00
2019-02-04T15:47:12.835Z,62.10
2019-02-04T15:54:24.803Z,62.00
2019-02-04T16:06:57.381Z,61.70
2019-02-04T16:09:25.622Z,61.70
2019-02-04T16:12:13.452Z,61.60
2019-02-04T16:14:48.622Z,61.60
2019-02-04T16:17:29.063Z,61.50
2019-02-04T16:20:13.886Z,61.50
2019-02-04T16:23:12.154Z,61.60
2019-02-04T16:25:41.054Z,61.60
2019-02-04T16:28:15.616Z,61.70
2019-02-04T16:30:50.723Z,61.70
2019-02-04T16:33:31.000Z,61.80
2019-02-04T16:36:12.937Z,61.80
2019-02-04T16:38:55.399Z,61.90
2019-02-04T16:41:29.265Z,62.00
2019-02-04T16:45:22.004Z,62.10
2019-02-04T16:47:09.859Z,62.00
2019-02-04T16:49:47.970Z,62.10
2019-02-04T16:52:24.131Z,62.20
2019-02-04T16:55:05.949Z,62.20
2019-02-04T16:57:41.339Z,62.40
2019-02-04T17:00:28.230Z,62.50
2019-02-04T17:03:02.215Z,62.50
2019-02-04T17:05:44.075Z,62.60
2019-02-04T17:08:26.442Z,62.70
2019-02-04T17:11:11.155Z,62.80
2019-02-04T17:14:01.705Z,63.00
2019-02-04T17:16:34.219Z,63.00
2019-02-04T17:19:20.037Z,63.00
2019-02-04T17:22:18.600Z,63.10
2019-02-04T17:25:13.837Z,63.10
2019-02-04T17:30:59.398Z,63.30
2019-02-04T17:33:44.002Z,63.30
2019-02-04T17:36:54.605Z,63.40
2019-02-04T17:39:27.125Z,63.50
2019-02-04T17:42:00.069Z,63.50
2019-02-04T17:44:43.754Z,63.50
2019-02-04T17:47:25.573Z,63.60
2019-02-04T17:53:13.224Z,63.60
2019-02-04T17:55:54.800Z,63.60
2019-02-04T17:58:34.441Z,63.60
2019-02-04T18:01:51.188Z,63.60
2019-02-04T18:04:17.891Z,63.50
2019-02-04T18:07:21.637Z,63.40
2019-02-04T18:13:08.185Z,63.50
2019-02-04T18:15:29.662Z,63.50
2019-02-04T18:18:11.277Z,63.30
2019-02-04T18:20:57.209Z,63.30
2019-02-04T18:23:45.609Z,63.20
2019-02-04T18:26:18.326Z,63.20
2019-02-04T18:29:09.516Z,63.20
2019-02-04T18:31:47.740Z,63.20
2019-02-04T18:38:51.311Z,62.90
2019-02-04T18:42:16.464Z,62.80
2019-02-04T18:45:05.100Z,62.80
2019-02-04T18:48:02.906Z,62.70
2019-02-04T18:50:34.299Z,62.80
2019-02-04T18:53:13.920Z,62.70
2019-02-04T18:56:03.216Z,62.70
2019-02-04T18:58:37.645Z,62.70
2019-02-04T19:01:08.727Z,62.60
2019-02-04T19:03:43.390Z,62.70
2019-02-04T19:06:19.039Z,62.60
2019-02-04T19:09:23.037Z,62.60
2019-02-04T19:11:49.505Z,62.60
2019-02-04T19:14:23.893Z,62.50
2019-02-04T19:16:59.183Z,63.20
2019-02-04T19:19:30.301Z,62.60
2019-02-04T19:22:01.187Z,62.50
2019-02-04T19:24:33.512Z,62.50
2019-02-04T19:27:06.558Z,62.60
2019-02-04T19:29:37.710Z,62.70
2019-02-04T19:32:10.937Z,62.70
2019-02-04T19:34:45.341Z,62.90
2019-02-04T19:37:23.727Z,63.10
2019-02-04T19:39:56.228Z,63.20
2019-02-04T19:42:27.039Z,63.20
2019-02-04T19:45:00.790Z,63.30
2019-02-04T19:47:31.496Z,63.20
2019-02-04T19:50:17.981Z,63.20
2019-02-04T19:52:59.002Z,63.10
2019-02-04T19:55:33.215Z,64.10
2019-02-04T19:58:10.083Z,63.40
2019-02-04T20:00:42.341Z,63.60
2019-02-04T20:03:20.548Z,63.70
2019-02-04T20:06:06.016Z,63.60
2019-02-04T20:08:30.174Z,63.70
2019-02-04T20:11:09.017Z,63.70
2019-02-04T20:13:45.102Z,63.70
2019-02-04T20:16:19.120Z,63.70
2019-02-04T20:18:53.506Z,63.70
2019-02-04T20:21:28.669Z,63.70
2019-02-04T20:24:11.997Z,63.70
2019-02-04T20:26:52.017Z,63.60
2019-02-04T20:29:42.311Z,63.70
2019-02-04T20:32:47.330Z,63.60
2019-02-04T20:35:32.857Z,63.60
2019-02-04T20:38:12.865Z,63.60
2019-02-04T20:40:57.175Z,63.50
2019-02-04T20:43:32.714Z,63.50
2019-02-04T20:46:11.066Z,63.50
2019-02-04T20:48:43.097Z,63.40
2019-02-04T20:51:40.665Z,63.60
2019-02-04T20:53:58.472Z,63.40
2019-02-04T20:56:47.836Z,63.40
2019-02-04T20:59:34.953Z,63.50
2019-02-04T21:02:16.241Z,64.30
2019-02-04T21:04:53.056Z,63.60
2019-02-04T21:07:39.848Z,63.60
2019-02-04T21:10:39.026Z,63.50
2019-02-04T21:16:11.579Z,63.40
2019-02-04T21:18:46.437Z,63.40
2019-02-04T21:21:17.539Z,63.40
2019-02-04T21:24:20.780Z,63.50
2019-02-04T21:27:01.883Z,63.50
2019-02-04T21:29:38.812Z,63.50
2019-02-04T21:32:18.059Z,63.50
2019-02-04T21:34:52.460Z,63.60
2019-02-04T21:37:27.733Z,63.60
2019-02-04T21:40:03.770Z,63.50
2019-02-04T21:42:47.915Z,63.60
2019-02-04T21:45:31.039Z,63.60
2019-02-04T21:47:59.439Z,63.50
2019-02-04T21:50:37.529Z,63.50
2019-02-04T21:53:13.601Z,63.50
2019-02-04T21:55:55.690Z,63.50
2019-02-04T21:58:30.214Z,63.50
2019-02-04T22:01:07.801Z,63.30
2019-02-04T22:03:40.077Z,63.40
2019-02-04T22:06:23.465Z,63.40
2019-02-04T22:08:58.641Z,63.40
2019-02-04T22:11:30.950Z,63.40
2019-02-04T22:14:05.316Z,63.30
2019-02-04T22:16:48.762Z,63.30
2019-02-04T22:19:49.178Z,63.30
2019-02-04T22:22:27.640Z,63.30
2019-02-04T22:25:19.610Z,63.30
2019-02-04T22:27:51.788Z,63.30
2019-02-04T22:30:33.973Z,63.10
2019-02-04T22:33:07.732Z,63.20
2019-02-04T22:35:45.485Z,63.20
2019-02-04T22:38:39.680Z,63.10
2019-02-04T22:41:05.029Z,62.90
2019-02-04T22:43:44.774Z,62.90
2019-02-04T22:46:17.386Z,63.00
2019-02-04T22:48:52.914Z,62.70
2019-02-04T22:51:29.417Z,62.60
2019-02-04T22:54:01.458Z,62.60
2019-02-04T22:56:38.852Z,62.70
2019-02-04T22:59:12.301Z,62.70
2019-02-04T23:01:52.047Z,62.90
2019-02-04T23:04:26.238Z,62.40
2019-02-04T23:06:59.929Z,62.20
2019-02-04T23:09:33.400Z,62.10
2019-02-04T23:12:05.299Z,62.10
2019-02-04T23:14:36.111Z,62.10
2019-02-04T23:17:07.368Z,61.90
2019-02-04T23:19:46.142Z,61.70
2019-02-04T23:22:17.221Z,61.60
2019-02-04T23:24:48.167Z,61.60
2019-02-04T23:27:24.421Z,61.70
2019-02-04T23:29:59.252Z,61.50
2019-02-04T23:32:30.053Z,61.20
2019-02-04T23:35:01.232Z,61.10
2019-02-04T23:37:34.339Z,61.10
2019-02-04T23:40:05.693Z,61.00
2019-02-04T23:42:36.513Z,60.90
2019-02-04T23:45:11.863Z,60.90
2019-02-04T23:47:44.221Z,60.90
2019-02-04T23:50:18.436Z,60.90
2019-02-04T23:52:55.738Z,60.90
2019-02-04T23:55:26.608Z,60.60
2019-02-04T23:58:03.355Z,60.60
